Terminal Aerodrome Forecast
Issued by NWS Mt. Holly, NJ

Home | Current Version | Previous Version | Text Only | Print | Product List | Glossary On
Versions: 1 2 3 4 5 6 7 8 9 10 11 12 13 14 15 16
567
FTUS41 KPHI 091120
TAFRDG
TAF
KRDG 091120Z 0912/1012 05008KT P6SM OVC010
      TEMPO 0914/0918 2SM -SN OVC008
     FM092000 02005KT 1SM -SN OVC006
     FM092300 36003KT 5SM BR OVC010
     FM100800 30004KT P6SM SCT030 OVC090=

USA.gov is the U.S. government's official web portal to all federal, state and local government web resources and services.